createdAt,value
2022-11-05T00:00:40.710Z,0.82
2022-11-05T00:03:26.666Z,1.20
2022-11-05T00:06:12.582Z,1.15
2022-11-05T00:08:59.903Z,1.65
2022-11-05T00:11:41.837Z,1.15
2022-11-05T00:14:26.969Z,1.23
2022-11-05T00:16:54.886Z,1.55
2022-11-05T00:19:22.737Z,1.60
2022-11-05T00:22:08.175Z,1.45
2022-11-05T00:24:54.457Z,1.67
2022-11-05T00:27:22.310Z,1.70
2022-11-05T00:29:50.135Z,1.65
2022-11-05T00:32:17.869Z,1.63
2022-11-05T00:34:45.621Z,1.48
2022-11-05T00:37:13.447Z,1.42
2022-11-05T00:39:42.592Z,1.70
2022-11-05T00:42:27.876Z,1.70
2022-11-05T00:45:04.980Z,1.67
2022-11-05T00:47:51.585Z,2.00
2022-11-05T00:50:21.049Z,1.35
2022-11-05T00:52:58.102Z,1.80
2022-11-05T00:55:30.123Z,1.83
2022-11-05T00:57:59.231Z,1.42
2022-11-05T01:00:30.369Z,1.65
2022-11-05T01:03:03.794Z,1.63
2022-11-05T01:05:32.803Z,1.52
2022-11-05T01:08:01.381Z,1.25
2022-11-05T01:12:59.128Z,1.65
2022-11-05T01:17:54.685Z,1.63
2022-11-05T01:20:22.422Z,1.77
2022-11-05T01:22:50.084Z,1.42
2022-11-05T01:25:18.042Z,1.20
2022-11-05T01:27:47.168Z,1.50
2022-11-05T01:30:15.269Z,1.67
2022-11-05T01:32:43.213Z,1.58
2022-11-05T01:35:14.138Z,1.60
2022-11-05T01:37:42.790Z,1.40
2022-11-05T01:40:12.684Z,1.35
2022-11-05T01:42:40.479Z,1.60
2022-11-05T01:45:16.645Z,1.90
2022-11-05T01:47:52.530Z,1.38
2022-11-05T01:50:44.291Z,1.50
2022-11-05T01:53:22.927Z,1.52
2022-11-05T01:55:58.690Z,1.40
2022-11-05T01:58:29.799Z,1.30
2022-11-05T02:00:59.245Z,1.10
2022-11-05T02:03:27.807Z,1.35
2022-11-05T02:08:36.543Z,1.27
2022-11-05T02:11:04.953Z,1.08
2022-11-05T02:13:32.753Z,1.40
2022-11-05T02:16:08.984Z,1.48
2022-11-05T02:18:50.445Z,1.10
2022-11-05T02:22:00.964Z,1.30
2022-11-05T02:25:01.393Z,1.05
2022-11-05T02:27:55.658Z,1.05
2022-11-05T02:33:31.349Z,1.23
2022-11-05T02:36:15.567Z,1.30
2022-11-05T02:38:53.075Z,1.40
2022-11-05T02:41:28.654Z,1.10
2022-11-05T02:44:12.627Z,0.90
2022-11-05T02:46:48.248Z,1.33
2022-11-05T02:49:25.925Z,0.93
2022-11-05T02:51:59.054Z,1.15
2022-11-05T02:54:33.588Z,1.17
2022-11-05T02:57:04.760Z,1.33
2022-11-05T02:59:32.808Z,0.88
2022-11-05T03:02:04.554Z,0.82
2022-11-05T03:04:33.105Z,0.95
2022-11-05T03:10:16.998Z,0.98
2022-11-05T03:12:57.003Z,0.80
2022-11-05T03:15:40.160Z,0.90
2022-11-05T03:18:15.151Z,0.82
2022-11-05T03:20:49.774Z,0.75
2022-11-05T03:23:26.652Z,0.82
2022-11-05T03:26:02.363Z,1.13
2022-11-05T03:28:35.547Z,0.80
2022-11-05T03:31:04.885Z,0.90
2022-11-05T03:33:37.658Z,1.02
2022-11-05T03:36:11.069Z,0.88
2022-11-05T03:38:43.132Z,0.77
2022-11-05T03:41:14.670Z,1.13
2022-11-05T03:43:50.324Z,0.80
2022-11-05T03:46:23.435Z,1.08
2022-11-05T03:48:55.971Z,0.95
2022-11-05T03:51:33.488Z,0.90
2022-11-05T03:54:04.090Z,1.02
2022-11-05T03:56:36.811Z,1.20
2022-11-05T03:59:07.757Z,0.80
2022-11-05T04:01:38.141Z,1.13
2022-11-05T04:04:09.615Z,0.93
2022-11-05T04:06:54.986Z,0.82
2022-11-05T04:09:40.360Z,1.33
2022-11-05T04:12:27.259Z,1.10
2022-11-05T04:14:55.074Z,0.68
2022-11-05T04:17:21.811Z,1.00
2022-11-05T04:20:08.716Z,1.02
2022-11-05T04:22:55.041Z,1.40
2022-11-05T04:25:23.587Z,1.00
2022-11-05T04:30:19.133Z,1.20
2022-11-05T04:32:58.502Z,0.82
2022-11-05T04:35:28.699Z,1.17
2022-11-05T04:37:56.496Z,1.15
2022-11-05T04:40:24.738Z,1.00
2022-11-05T04:42:54.288Z,1.23
2022-11-05T04:45:22.153Z,1.10
2022-11-05T04:47:49.977Z,1.30
2022-11-05T04:50:17.993Z,1.08
2022-11-05T04:52:47.099Z,1.30
2022-11-05T04:55:15.162Z,1.00
2022-11-05T04:57:43.050Z,1.38
2022-11-05T05:00:12.119Z,1.40
2022-11-05T05:02:40.029Z,1.00
2022-11-05T05:05:08.067Z,1.17
2022-11-05T05:07:36.347Z,1.40
2022-11-05T05:10:07.491Z,1.60
2022-11-05T05:12:36.040Z,1.63
2022-11-05T05:15:05.134Z,1.50
2022-11-05T05:17:32.909Z,1.50
2022-11-05T05:20:18.776Z,1.33
2022-11-05T05:22:52.991Z,1.55
2022-11-05T05:25:22.298Z,1.65
2022-11-05T05:27:50.145Z,1.38
2022-11-05T05:30:18.451Z,1.55
2022-11-05T05:32:46.923Z,1.40
2022-11-05T05:35:14.791Z,1.63
2022-11-05T05:37:42.827Z,1.25
2022-11-05T05:40:12.129Z,1.50
2022-11-05T05:42:43.437Z,1.42
2022-11-05T05:45:12.565Z,1.35
2022-11-05T05:47:40.701Z,1.50
2022-11-05T05:50:08.832Z,1.65
2022-11-05T05:52:36.547Z,1.55
2022-11-05T05:55:04.768Z,1.33
2022-11-05T05:57:32.638Z,1.23
2022-11-05T06:00:02.112Z,1.58
2022-11-05T06:02:31.437Z,1.40
2022-11-05T06:04:59.432Z,1.40
2022-11-05T06:07:27.522Z,1.52
2022-11-05T06:09:55.435Z,1.45
2022-11-05T06:12:23.157Z,1.58
2022-11-05T06:14:51.511Z,1.33
2022-11-05T06:17:20.786Z,1.38
2022-11-05T06:19:48.646Z,1.95
2022-11-05T06:22:16.516Z,1.63
2022-11-05T06:24:44.374Z,1.80
2022-11-05T06:27:12.231Z,1.77
2022-11-05T06:29:39.995Z,1.70
2022-11-05T06:32:07.794Z,1.58
2022-11-05T06:34:37.896Z,1.83
2022-11-05T06:37:05.836Z,2.05
2022-11-05T06:39:33.872Z,1.45
2022-11-05T06:42:17.866Z,1.45
2022-11-05T06:44:46.356Z,1.65
2022-11-05T06:47:14.276Z,1.60
2022-11-05T06:49:43.370Z,1.60
2022-11-05T06:52:11.271Z,1.77
2022-11-05T06:54:39.039Z,1.92
2022-11-05T06:57:09.522Z,1.60
2022-11-05T06:59:37.529Z,1.73
2022-11-05T07:02:05.824Z,2.28
2022-11-05T07:04:33.687Z,2.05
2022-11-05T07:07:03.084Z,2.40
2022-11-05T07:09:31.071Z,1.95
2022-11-05T07:11:58.838Z,1.75
2022-11-05T07:14:26.672Z,1.90
2022-11-05T07:16:54.452Z,1.75
2022-11-05T07:19:22.276Z,1.73
2022-11-05T07:21:51.017Z,1.63
2022-11-05T07:24:20.224Z,1.80
2022-11-05T07:26:48.126Z,1.90
2022-11-05T07:29:15.906Z,1.83
2022-11-05T07:31:43.726Z,2.00
2022-11-05T07:34:11.522Z,1.88
2022-11-05T07:36:39.834Z,2.13
2022-11-05T07:39:07.710Z,1.77
2022-11-05T07:41:37.172Z,1.67
2022-11-05T07:44:05.283Z,2.15
2022-11-05T07:46:33.202Z,1.75
2022-11-05T07:49:01.033Z,1.70
2022-11-05T07:51:29.096Z,2.28
2022-11-05T07:53:57.030Z,1.77
2022-11-05T07:56:25.149Z,1.67
2022-11-05T07:58:54.828Z,1.80
2022-11-05T08:01:23.013Z,1.77
2022-11-05T08:03:50.798Z,1.83
2022-11-05T08:06:18.665Z,1.88
2022-11-05T08:08:46.382Z,2.00
2022-11-05T08:11:14.256Z,1.77
2022-11-05T08:13:42.942Z,2.42
2022-11-05T08:16:12.144Z,2.13
2022-11-05T08:18:40.394Z,2.35
2022-11-05T08:21:08.959Z,2.28
2022-11-05T08:23:36.942Z,2.75
2022-11-05T08:26:05.470Z,3.08
2022-11-05T08:28:34.690Z,2.40
2022-11-05T08:31:02.499Z,2.65
2022-11-05T08:33:33.458Z,2.83
2022-11-05T08:36:03.899Z,2.42
2022-11-05T08:38:31.772Z,3.03
2022-11-05T08:41:00.608Z,2.38
2022-11-05T08:43:28.396Z,2.42
2022-11-05T08:45:56.484Z,2.45
2022-11-05T08:48:26.093Z,2.53
2022-11-05T08:50:55.318Z,2.65
2022-11-05T08:53:23.071Z,2.70
2022-11-05T08:55:51.528Z,2.38
2022-11-05T09:00:49.773Z,2.13
2022-11-05T09:03:18.628Z,2.15
2022-11-05T09:05:46.610Z,2.15
2022-11-05T09:08:17.837Z,1.58
2022-11-05T09:10:46.752Z,2.22
2022-11-05T09:13:19.305Z,2.28
2022-11-05T09:15:48.045Z,2.10
2022-11-05T09:18:16.534Z,2.30
2022-11-05T09:20:45.034Z,1.75
2022-11-05T09:25:43.545Z,1.73
2022-11-05T09:28:16.560Z,1.77
2022-11-05T09:30:47.400Z,2.13
2022-11-05T09:33:15.986Z,1.55
2022-11-05T09:35:44.163Z,1.98
2022-11-05T09:38:12.137Z,1.95
2022-11-05T09:40:46.329Z,1.65
2022-11-05T09:43:20.118Z,1.73
2022-11-05T09:45:52.391Z,1.40
2022-11-05T09:48:25.910Z,1.90
2022-11-05T09:50:54.753Z,1.38
2022-11-05T09:53:24.391Z,1.65
2022-11-05T09:55:57.137Z,1.55
2022-11-05T09:58:32.570Z,1.67
2022-11-05T10:01:00.965Z,1.90
2022-11-05T10:03:31.284Z,1.75
2022-11-05T10:06:07.297Z,1.80
2022-11-05T10:08:42.933Z,2.58
2022-11-05T10:11:18.075Z,2.17
2022-11-05T10:13:48.920Z,1.77
2022-11-05T10:16:24.923Z,2.10
2022-11-05T10:18:56.226Z,1.70
2022-11-05T10:21:44.293Z,2.00
2022-11-05T10:24:15.765Z,2.13
2022-11-05T10:26:48.567Z,1.98
2022-11-05T10:29:23.607Z,1.88
2022-11-05T10:31:54.072Z,1.67
2022-11-05T10:34:25.330Z,2.00
2022-11-05T10:36:54.310Z,1.77
2022-11-05T10:39:23.457Z,1.83
2022-11-05T10:42:08.229Z,1.85
2022-11-05T10:44:42.382Z,1.85
2022-11-05T10:47:32.319Z,2.10
2022-11-05T10:50:02.068Z,2.20
2022-11-05T10:52:35.110Z,2.90
2022-11-05T10:55:08.033Z,2.05
2022-11-05T10:57:39.759Z,1.90
2022-11-05T11:00:29.417Z,2.10
2022-11-05T11:03:00.157Z,2.17
2022-11-05T11:05:31.512Z,2.10
2022-11-05T11:08:03.291Z,2.00
2022-11-05T11:10:34.475Z,1.67
2022-11-05T11:13:04.023Z,2.60
2022-11-05T11:15:33.603Z,2.20
2022-11-05T11:18:25.023Z,2.00
2022-11-05T11:20:52.966Z,1.88
2022-11-05T11:23:20.742Z,2.15
2022-11-05T11:25:52.804Z,1.90
2022-11-05T11:28:26.499Z,2.03
2022-11-05T11:31:03.859Z,1.83
2022-11-05T11:33:32.871Z,2.25
2022-11-05T11:36:01.063Z,2.20
2022-11-05T11:38:31.754Z,2.53
2022-11-05T11:41:12.675Z,2.72
2022-11-05T11:43:44.157Z,2.35
2022-11-05T11:46:16.156Z,1.55
2022-11-05T11:48:47.477Z,1.98
2022-11-05T11:51:32.252Z,2.00
2022-11-05T11:54:01.909Z,1.98
2022-11-05T11:56:30.409Z,2.20
2022-11-05T11:59:03.788Z,1.83
2022-11-05T12:02:07.301Z,1.92
2022-11-05T12:05:01.109Z,1.73
2022-11-05T12:07:46.009Z,1.90
2022-11-05T12:10:38.774Z,2.08
2022-11-05T12:13:36.598Z,1.73
2022-11-05T12:16:16.341Z,1.98
2022-11-05T12:18:52.732Z,2.17
2022-11-05T12:21:48.042Z,2.05
2022-11-05T12:24:30.541Z,2.13
2022-11-05T12:27:09.498Z,1.77
2022-11-05T12:29:51.921Z,1.80
2022-11-05T12:32:56.566Z,2.10
2022-11-05T12:35:45.709Z,1.95
2022-11-05T12:38:28.052Z,1.95
2022-11-05T12:41:08.992Z,2.60
2022-11-05T12:43:46.235Z,1.98
2022-11-05T12:46:27.566Z,2.20
2022-11-05T12:49:12.644Z,2.15
2022-11-05T12:51:55.253Z,2.13
2022-11-05T12:54:36.515Z,2.95
2022-11-05T12:59:37.304Z,1.92
2022-11-05T13:02:17.284Z,1.92
2022-11-05T13:04:54.583Z,2.40
2022-11-05T13:07:29.697Z,2.55
2022-11-05T13:10:02.691Z,2.10
2022-11-05T13:12:35.277Z,2.10
2022-11-05T13:15:12.033Z,2.05
2022-11-05T13:17:50.143Z,2.33
2022-11-05T13:20:22.688Z,1.63
2022-11-05T13:22:56.567Z,1.92
2022-11-05T13:25:27.541Z,1.63
2022-11-05T13:28:00.457Z,1.52
2022-11-05T13:30:32.672Z,1.40
2022-11-05T13:33:05.367Z,1.70
2022-11-05T13:35:42.258Z,1.42
2022-11-05T13:38:39.511Z,1.70
2022-11-05T13:41:31.746Z,1.08
2022-11-05T13:44:16.272Z,1.45
2022-11-05T13:47:14.028Z,1.45
2022-11-05T13:49:57.171Z,1.60
2022-11-05T13:52:48.694Z,1.52
2022-11-05T13:55:43.624Z,1.40
2022-11-05T13:58:38.733Z,1.23
2022-11-05T14:01:15.659Z,1.30
2022-11-05T14:03:48.728Z,1.30
2022-11-05T14:06:25.317Z,1.77
2022-11-05T14:08:59.548Z,1.10
2022-11-05T14:11:30.552Z,1.40
2022-11-05T14:14:00.991Z,1.40
2022-11-05T14:16:41.584Z,1.55
2022-11-05T14:19:34.154Z,1.75
2022-11-05T14:22:38.894Z,1.55
2022-11-05T14:25:43.711Z,1.40
2022-11-05T14:28:42.321Z,1.40
2022-11-05T14:31:54.584Z,1.63
2022-11-05T14:34:39.741Z,1.40
2022-11-05T14:37:37.018Z,1.25
2022-11-05T14:40:36.221Z,0.88
2022-11-05T14:43:07.252Z,1.38
2022-11-05T14:45:40.360Z,1.30
2022-11-05T14:48:27.025Z,1.00
2022-11-05T14:50:54.920Z,1.38
2022-11-05T14:53:31.241Z,1.45
2022-11-05T14:56:02.829Z,1.30
2022-11-05T14:58:33.676Z,1.40
2022-11-05T15:01:05.089Z,1.15
2022-11-05T15:04:01.898Z,0.77
2022-11-05T15:06:32.600Z,1.20
2022-11-05T15:09:14.589Z,1.33
2022-11-05T15:11:49.921Z,1.02
2022-11-05T15:14:23.999Z,1.00
2022-11-05T15:16:55.891Z,1.02
2022-11-05T15:19:28.418Z,1.00
2022-11-05T15:22:00.103Z,1.05
2022-11-05T15:24:29.277Z,1.17
2022-11-05T15:27:04.725Z,1.10
2022-11-05T15:29:33.991Z,1.20
2022-11-05T15:32:03.390Z,0.80
2022-11-05T15:34:32.682Z,1.20
2022-11-05T15:37:02.367Z,0.88
2022-11-05T15:39:34.074Z,1.10
2022-11-05T15:42:05.842Z,1.00
2022-11-05T15:44:35.727Z,1.20
2022-11-05T15:47:15.977Z,0.85
2022-11-05T15:49:45.808Z,0.82
2022-11-05T15:52:20.140Z,0.80
2022-11-05T15:55:06.943Z,1.05
2022-11-05T15:57:39.914Z,0.88
2022-11-05T16:00:17.115Z,0.70
2022-11-05T16:02:53.707Z,0.85
2022-11-05T16:05:22.419Z,0.90
2022-11-05T16:07:50.416Z,1.38
2022-11-05T16:10:20.883Z,0.93
2022-11-05T16:12:48.799Z,0.93
2022-11-05T16:15:24.781Z,0.90
2022-11-05T16:17:58.425Z,0.77
2022-11-05T16:20:29.704Z,0.93
2022-11-05T16:22:59.379Z,1.23
2022-11-05T16:25:41.826Z,1.10
2022-11-05T16:28:23.238Z,0.98
2022-11-05T16:30:58.618Z,1.42
2022-11-05T16:33:34.029Z,1.10
2022-11-05T16:36:01.931Z,1.23
2022-11-05T16:38:29.726Z,0.88
2022-11-05T16:40:57.891Z,0.77
2022-11-05T16:43:26.632Z,1.67
2022-11-05T16:45:55.659Z,1.63
2022-11-05T16:48:23.395Z,1.15
2022-11-05T16:50:53.217Z,1.38
2022-11-05T16:53:21.193Z,1.40
2022-11-05T16:55:49.250Z,1.15
2022-11-05T16:58:22.055Z,0.80
2022-11-05T17:00:50.946Z,0.85
2022-11-05T17:03:19.602Z,0.73
2022-11-05T17:05:48.138Z,0.90
2022-11-05T17:08:17.178Z,1.00
2022-11-05T17:10:45.041Z,0.65
2022-11-05T17:13:16.032Z,1.00
2022-11-05T17:15:45.259Z,0.88
2022-11-05T17:18:18.167Z,0.95
2022-11-05T17:20:48.172Z,1.05
2022-11-05T17:23:19.738Z,0.85
2022-11-05T17:25:50.849Z,1.20
2022-11-05T17:28:19.650Z,1.20
2022-11-05T17:30:52.652Z,1.10
2022-11-05T17:33:21.771Z,1.00
2022-11-05T17:35:49.908Z,1.13
2022-11-05T17:38:19.547Z,1.30
2022-11-05T17:40:47.527Z,1.63
2022-11-05T17:43:16.395Z,1.25
2022-11-05T17:45:46.182Z,1.17
2022-11-05T17:48:14.410Z,1.25
2022-11-05T17:50:43.060Z,1.38
2022-11-05T17:53:11.797Z,1.33
2022-11-05T17:55:43.073Z,1.30
2022-11-05T17:58:11.301Z,1.48
2022-11-05T18:00:40.179Z,1.33
2022-11-05T18:03:08.829Z,1.00
2022-11-05T18:05:37.897Z,1.45
2022-11-05T18:08:06.672Z,1.25
2022-11-05T18:10:37.029Z,1.10
2022-11-05T18:13:06.425Z,1.65
2022-11-05T18:15:35.503Z,1.00
2022-11-05T18:18:03.384Z,1.70
2022-11-05T18:20:31.182Z,1.50
2022-11-05T18:22:58.956Z,1.90
2022-11-05T18:25:27.185Z,1.70
2022-11-05T18:27:54.923Z,1.42
2022-11-05T18:30:24.109Z,1.73
2022-11-05T18:32:52.171Z,1.58
2022-11-05T18:35:20.127Z,1.15
2022-11-05T18:37:47.993Z,1.20
2022-11-05T18:40:15.893Z,1.30
2022-11-05T18:42:43.635Z,1.40
2022-11-05T18:45:12.534Z,1.52
2022-11-05T18:47:41.780Z,1.92
2022-11-05T18:50:10.681Z,1.40
2022-11-05T18:52:38.638Z,1.65
2022-11-05T18:55:07.540Z,1.00
2022-11-05T18:57:35.563Z,1.40
2022-11-05T19:00:03.661Z,1.10
2022-11-05T19:02:31.516Z,1.27
2022-11-05T19:05:27.456Z,0.70
2022-11-05T19:07:48.627Z,1.02
2022-11-05T19:10:16.408Z,1.00
2022-11-05T19:12:44.398Z,1.20
2022-11-05T19:15:12.763Z,0.90
2022-11-05T19:17:40.493Z,1.30
2022-11-05T19:20:10.617Z,1.02
2022-11-05T19:22:38.585Z,1.15
2022-11-05T19:25:07.595Z,1.02
2022-11-05T19:27:37.487Z,0.85
2022-11-05T19:30:05.832Z,1.00
2022-11-05T19:32:33.664Z,1.13
2022-11-05T19:35:01.556Z,0.60
2022-11-05T19:37:30.669Z,1.25
2022-11-05T19:39:58.359Z,1.17
2022-11-05T19:42:26.238Z,1.00
2022-11-05T19:44:54.064Z,1.38
2022-11-05T19:47:21.766Z,1.17
2022-11-05T19:49:49.497Z,1.02
2022-11-05T19:52:17.286Z,1.20
2022-11-05T19:54:47.070Z,1.00
2022-11-05T19:57:14.827Z,1.02
2022-11-05T19:59:42.575Z,1.08
2022-11-05T20:02:16.069Z,0.80
2022-11-05T20:04:44.401Z,1.23
2022-11-05T20:07:12.140Z,1.10
2022-11-05T20:09:39.970Z,1.20
2022-11-05T20:12:10.080Z,1.55
2022-11-05T20:14:38.241Z,1.17
2022-11-05T20:17:06.130Z,0.63
2022-11-05T20:19:35.209Z,0.95
2022-11-05T20:22:03.132Z,0.60
2022-11-05T20:24:31.144Z,0.90
2022-11-05T20:26:58.965Z,1.42
2022-11-05T20:29:35.076Z,0.90
2022-11-05T20:32:04.471Z,0.95
2022-11-05T20:34:33.019Z,0.70
2022-11-05T20:37:01.239Z,0.90
2022-11-05T20:44:24.788Z,0.90
2022-11-05T20:46:53.988Z,0.85
2022-11-05T20:49:25.360Z,0.73
2022-11-05T20:51:53.807Z,0.95
2022-11-05T20:54:21.642Z,0.77
2022-11-05T20:56:49.427Z,0.98
2022-11-05T20:59:17.383Z,0.98
2022-11-05T21:01:45.262Z,1.10
2022-11-05T21:04:14.633Z,1.10
2022-11-05T21:06:42.586Z,1.02
2022-11-05T21:09:10.318Z,1.02
2022-11-05T21:11:51.989Z,0.85
2022-11-05T21:14:20.340Z,0.77
2022-11-05T21:21:44.626Z,0.70
2022-11-05T21:24:12.316Z,0.68
2022-11-05T21:26:40.104Z,0.93
2022-11-05T21:29:08.512Z,0.52
2022-11-05T21:34:04.588Z,0.98
2022-11-05T21:36:33.895Z,1.05
2022-11-05T21:39:01.722Z,0.98
2022-11-05T21:41:29.464Z,0.93
2022-11-05T21:43:57.434Z,1.00
2022-11-05T21:46:25.441Z,0.88
2022-11-05T21:48:53.450Z,1.27
2022-11-05T21:51:38.585Z,0.95
2022-11-05T21:54:25.002Z,1.48
2022-11-05T21:57:11.081Z,1.08
2022-11-05T21:59:52.832Z,1.25
2022-11-05T22:02:22.489Z,1.30
2022-11-05T22:04:52.061Z,0.90
2022-11-05T22:07:21.440Z,0.85
2022-11-05T22:09:51.222Z,1.10
2022-11-05T22:12:19.118Z,0.65
2022-11-05T22:14:46.981Z,1.20
2022-11-05T22:17:16.112Z,0.60
2022-11-05T22:19:43.931Z,1.27
2022-11-05T22:22:12.435Z,1.08
2022-11-05T22:24:40.981Z,1.23
2022-11-05T22:27:13.849Z,1.10
2022-11-05T22:29:41.618Z,0.82
2022-11-05T22:32:10.963Z,1.10
2022-11-05T22:34:38.911Z,0.90
2022-11-05T22:37:07.256Z,1.13
2022-11-05T22:44:37.869Z,1.08
2022-11-05T22:47:06.487Z,1.23
2022-11-05T22:49:35.301Z,1.52
2022-11-05T22:52:03.090Z,1.10
2022-11-05T22:54:35.080Z,1.13
2022-11-05T22:57:05.922Z,1.38
2022-11-05T22:59:34.234Z,1.50
2022-11-05T23:02:09.218Z,1.10
2022-11-05T23:04:37.731Z,1.38
2022-11-05T23:07:27.332Z,1.13
2022-11-05T23:10:14.094Z,1.15
2022-11-05T23:12:43.614Z,1.27
2022-11-05T23:15:33.517Z,1.38
2022-11-05T23:18:16.655Z,1.35
2022-11-05T23:21:03.421Z,1.10
2022-11-05T23:23:48.774Z,1.20
2022-11-05T23:26:34.001Z,1.15
2022-11-05T23:29:01.941Z,1.40
2022-11-05T23:31:46.963Z,1.33
2022-11-05T23:34:16.154Z,1.35
2022-11-05T23:37:01.162Z,1.88
2022-11-05T23:39:28.867Z,1.17
2022-11-05T23:42:14.066Z,1.13
2022-11-05T23:44:59.100Z,1.50
2022-11-05T23:47:44.536Z,0.90
2022-11-05T23:50:13.701Z,1.30
2022-11-05T23:52:41.582Z,1.17
2022-11-05T23:55:10.130Z,1.15
2022-11-05T23:57:38.170Z,1.23
